createdAt,value
2022-08-26T00:00:09.056Z,100762.63
2022-08-26T00:05:11.609Z,100770.47
2022-08-26T00:10:13.294Z,100784.47
2022-08-26T00:15:18.306Z,100789.91
2022-08-26T00:20:24.740Z,100794.50
2022-08-26T00:25:27.720Z,100799.72
2022-08-26T00:30:30.924Z,100806.53
2022-08-26T00:35:33.808Z,100805.34
2022-08-26T00:40:43.199Z,100806.44
2022-08-26T00:45:49.688Z,100810.03
2022-08-26T00:50:56.374Z,100810.31
2022-08-26T00:56:04.805Z,100810.47
2022-08-26T01:01:07.065Z,100811.53
2022-08-26T01:06:12.529Z,100824.34
2022-08-26T01:11:15.758Z,100824.38
2022-08-26T01:16:17.944Z,100820.09
2022-08-26T01:21:35.278Z,100821.66
2022-08-26T01:26:43.585Z,100824.53
2022-08-26T01:31:49.924Z,100829.09
2022-08-26T01:36:59.859Z,100828.59
2022-08-26T01:42:03.521Z,100834.59
2022-08-26T01:47:06.621Z,100838.13
2022-08-26T01:52:09.961Z,100851.13
2022-08-26T01:57:14.291Z,100866.59
2022-08-26T02:02:17.670Z,100861.75
2022-08-26T02:07:21.606Z,100856.59
2022-08-26T02:12:23.421Z,100865.56
2022-08-26T02:17:33.591Z,100872.63
2022-08-26T02:22:36.304Z,100876.97
2022-08-26T02:27:37.896Z,100870.22
2022-08-26T02:32:40.336Z,100879.44
2022-08-26T02:37:43.062Z,100868.31
2022-08-26T02:42:44.584Z,100868.59
2022-08-26T02:47:46.515Z,100875.97
2022-08-26T02:52:48.634Z,100882.44
2022-08-26T02:57:50.148Z,100883.53
2022-08-26T03:02:53.309Z,100874.34
2022-08-26T03:07:54.824Z,100873.78
2022-08-26T03:12:56.745Z,100875.94
2022-08-26T03:17:59.869Z,100874.84
2022-08-26T03:23:01.383Z,100871.34
2022-08-26T03:28:03.446Z,100876.47
2022-08-26T03:33:05.264Z,100871.03
2022-08-26T03:38:07.614Z,100874.31
2022-08-26T03:43:10.302Z,100867.00
2022-08-26T03:48:12.083Z,100867.28
2022-08-26T03:53:13.670Z,100877.81
2022-08-26T03:58:17.732Z,100881.91
2022-08-26T04:03:19.442Z,100875.13
2022-08-26T04:08:21.049Z,100883.25
2022-08-26T04:13:23.414Z,100883.00
2022-08-26T04:18:25.250Z,100878.69
2022-08-26T04:23:46.889Z,100878.13
2022-08-26T04:28:50.422Z,100880.25
2022-08-26T04:33:51.848Z,100883.53
2022-08-26T04:38:54.931Z,100884.06
2022-08-26T04:44:02.392Z,100893.28
2022-08-26T04:49:04.628Z,100898.16
2022-08-26T04:54:07.088Z,100898.44
2022-08-26T04:59:16.980Z,100900.88
2022-08-26T05:04:23.810Z,100905.75
2022-08-26T05:09:25.560Z,100902.50
2022-08-26T05:14:38.689Z,100904.13
2022-08-26T05:20:07.547Z,100909.56
2022-08-26T05:25:09.443Z,100912.25
2022-08-26T05:35:49.882Z,100900.31
2022-08-26T05:52:25.884Z,100915.22
2022-08-26T06:10:15.385Z,100926.31
2022-08-26T06:16:10.241Z,100923.56
2022-08-26T06:49:26.839Z,100934.69
2022-08-26T06:54:55.744Z,100937.13
2022-08-26T07:00:03.992Z,100951.50
2022-08-26T07:05:08.686Z,100949.63
2022-08-26T07:10:10.703Z,100953.69
2022-08-26T07:15:27.123Z,100954.50
2022-08-26T07:20:32.777Z,100952.84
2022-08-26T07:37:00.215Z,100965.53
2022-08-26T07:42:08.004Z,100967.44
2022-08-26T07:47:25.213Z,100972.09
2022-08-26T07:52:32.337Z,100978.31
2022-08-26T07:57:44.264Z,100976.69
2022-08-26T08:02:52.158Z,100985.63
2022-08-26T08:08:26.522Z,100982.94
2022-08-26T08:13:20.982Z,100987.00
2022-08-26T08:18:32.275Z,100979.38
2022-08-26T08:23:33.942Z,100984.25
2022-08-26T08:34:45.374Z,100994.03
2022-08-26T08:40:11.127Z,100997.84
2022-08-26T08:45:23.068Z,100990.25
2022-08-26T08:50:50.759Z,100997.03
2022-08-26T08:55:54.853Z,100996.19
2022-08-26T09:01:04.705Z,101001.09
2022-08-26T09:06:08.717Z,100991.53
2022-08-26T09:11:10.632Z,101004.06
2022-08-26T09:16:24.445Z,101003.78
2022-08-26T09:21:26.710Z,101009.22
2022-08-26T09:26:39.396Z,101008.09
2022-08-26T09:31:40.832Z,101001.84
2022-08-26T09:36:43.762Z,101006.44
2022-08-26T09:42:00.993Z,101003.94
2022-08-26T09:47:06.707Z,101002.03
2022-08-26T09:52:20.519Z,101005.53
2022-08-26T09:57:27.926Z,101001.19
2022-08-26T10:02:33.499Z,101010.06
2022-08-26T10:07:57.903Z,101006.97
2022-08-26T10:13:23.967Z,101004.09
2022-08-26T10:18:34.129Z,100995.31
2022-08-26T10:23:43.529Z,101005.34
2022-08-26T10:29:01.579Z,101002.53
2022-08-26T10:34:03.064Z,101001.38
2022-08-26T10:39:09.630Z,100991.72
2022-08-26T10:44:17.658Z,101001.22
2022-08-26T10:49:19.080Z,100989.84
2022-08-26T10:54:53.359Z,100990.78
2022-08-26T11:00:11.072Z,100984.19
2022-08-26T11:05:20.854Z,100990.25
2022-08-26T11:10:22.313Z,100987.91
2022-08-26T11:15:26.724Z,100981.94
2022-08-26T11:20:42.074Z,100973.94
2022-08-26T11:25:55.965Z,100982.56
2022-08-26T11:30:58.563Z,100978.91
2022-08-26T11:36:00.142Z,100980.34
2022-08-26T11:41:20.743Z,100977.69
2022-08-26T11:46:27.998Z,100969.72
2022-08-26T11:51:29.555Z,100978.06
2022-08-26T11:56:35.826Z,100960.47
2022-08-26T12:01:40.458Z,100967.00
2022-08-26T12:06:49.700Z,100963.75
2022-08-26T12:11:52.710Z,100970.91
2022-08-26T12:17:13.156Z,100962.28
2022-08-26T12:22:33.945Z,100966.06
2022-08-26T12:27:44.288Z,100969.03
2022-08-26T12:32:57.839Z,100967.16
2022-08-26T12:38:00.092Z,100975.72
2022-08-26T12:54:57.032Z,100971.06
2022-08-26T13:00:26.237Z,100962.66
2022-08-26T13:05:36.054Z,100968.22
2022-08-26T13:11:07.868Z,100964.69
2022-08-26T13:16:09.337Z,100966.47
2022-08-26T13:21:20.353Z,100960.75
2022-08-26T13:26:21.990Z,100951.72
2022-08-26T13:31:27.082Z,100946.75
2022-08-26T13:36:28.883Z,100947.34
2022-08-26T13:41:30.297Z,100943.53
2022-08-26T13:46:32.134Z,100945.34
2022-08-26T13:51:34.199Z,100928.50
2022-08-26T13:56:36.839Z,100937.66
2022-08-26T14:01:38.532Z,100942.75
2022-08-26T14:06:40.042Z,100949.75
2022-08-26T14:11:50.933Z,100960.13
2022-08-26T14:17:03.120Z,100950.22
2022-08-26T14:40:16.039Z,100925.25
2022-08-26T14:45:26.911Z,100933.00
2022-08-26T14:50:28.464Z,100936.91
2022-08-26T14:55:34.326Z,100940.31
2022-08-26T15:00:36.428Z,100957.91
2022-08-26T15:05:38.046Z,100934.59
2022-08-26T15:16:14.883Z,100928.72
2022-08-26T15:21:40.473Z,100921.59
2022-08-26T15:26:43.446Z,100921.50
2022-08-26T15:31:58.692Z,100922.72
2022-08-26T15:37:05.898Z,100925.66
2022-08-26T15:42:07.368Z,100918.63
2022-08-26T15:53:31.573Z,100907.44
2022-08-26T15:58:38.514Z,100906.63
2022-08-26T16:03:41.879Z,100897.78
2022-08-26T16:08:43.747Z,100908.00
2022-08-26T16:31:27.789Z,100912.19
2022-08-26T16:36:32.404Z,100921.47
2022-08-26T16:41:44.307Z,100920.94
2022-08-26T16:53:27.280Z,100937.09
2022-08-26T16:58:28.757Z,100945.47
2022-08-26T17:03:30.142Z,100942.47
2022-08-26T17:08:31.823Z,100944.72
2022-08-26T17:13:35.207Z,100941.28
2022-08-26T17:18:37.817Z,100944.88
2022-08-26T17:23:40.981Z,100963.91
2022-08-26T17:28:42.414Z,100963.44
2022-08-26T17:33:47.636Z,100966.75
2022-08-26T17:38:50.391Z,100970.09
2022-08-26T17:43:55.877Z,100977.22
2022-08-26T17:48:57.322Z,100978.63
2022-08-26T17:53:58.789Z,100972.75
2022-08-26T17:59:03.521Z,100972.16
2022-08-26T18:04:05.849Z,100968.97
2022-08-26T18:09:07.532Z,100971.16
2022-08-26T18:14:09.181Z,100975.59
2022-08-26T18:19:10.754Z,100978.34
2022-08-26T18:24:14.163Z,100984.03
2022-08-26T18:29:17.708Z,100981.88
2022-08-26T18:34:19.343Z,100987.06
2022-08-26T18:39:23.574Z,100986.78
2022-08-26T18:44:25.269Z,100978.66
2022-08-26T18:49:26.787Z,100979.50
2022-08-26T18:54:28.250Z,100983.56
2022-08-26T18:59:30.642Z,100994.72
2022-08-26T19:04:32.195Z,100994.44
2022-08-26T19:09:36.265Z,100998.25
2022-08-26T19:14:38.004Z,100999.91
2022-08-26T19:19:41.052Z,100996.13
2022-08-26T19:24:42.757Z,100993.44
2022-08-26T19:29:58.592Z,101009.97
2022-08-26T19:35:05.545Z,101004.59
2022-08-26T19:57:46.332Z,100994.03
2022-08-26T20:02:49.453Z,100998.41
2022-08-26T20:07:54.626Z,100998.94
2022-08-26T20:13:12.441Z,101004.34
2022-08-26T20:18:23.518Z,101010.56
2022-08-26T20:23:24.966Z,101005.72
2022-08-26T20:28:26.452Z,101005.69
2022-08-26T20:33:46.523Z,101013.81
2022-08-26T20:39:04.853Z,101006.50
2022-08-26T20:44:07.485Z,101018.44
2022-08-26T20:49:09.622Z,101017.88
2022-08-26T20:54:19.828Z,101021.94
2022-08-26T20:59:21.555Z,101024.91
2022-08-26T21:04:25.675Z,101019.75
2022-08-26T21:09:27.281Z,101021.13
2022-08-26T21:14:29.953Z,101025.22
2022-08-26T21:19:31.397Z,101027.38
2022-08-26T21:24:32.994Z,101028.16
2022-08-26T21:29:36.108Z,101027.81
2022-08-26T21:34:37.548Z,101028.63
2022-08-26T21:39:41.111Z,101024.84
2022-08-26T21:44:42.602Z,101034.56
2022-08-26T21:49:47.864Z,101038.59
2022-08-26T21:54:49.939Z,101040.75
2022-08-26T21:59:51.403Z,101041.81
2022-08-26T22:04:52.813Z,101049.09
2022-08-26T22:09:54.276Z,101041.47
2022-08-26T22:14:55.762Z,101051.22
2022-08-26T22:20:00.342Z,101046.88
2022-08-26T22:25:01.735Z,101057.66
2022-08-26T22:30:03.750Z,101051.16
2022-08-26T22:35:17.594Z,101056.47
2022-08-26T22:40:28.250Z,101070.63
2022-08-26T22:45:30.892Z,101071.91
2022-08-26T22:50:32.409Z,101065.13
2022-08-26T22:55:33.890Z,101063.50
2022-08-26T23:00:35.916Z,101064.56
2022-08-26T23:05:39.084Z,101058.53
2022-08-26T23:10:43.254Z,101059.91
2022-08-26T23:15:45.477Z,101062.06
2022-08-26T23:20:46.887Z,101060.72
2022-08-26T23:25:48.334Z,101064.16
2022-08-26T23:30:50.265Z,101061.69
2022-08-26T23:35:51.659Z,101065.22
2022-08-26T23:40:53.125Z,101060.59
2022-08-26T23:45:57.011Z,101064.81
2022-08-26T23:51:00.008Z,101061.81
2022-08-26T23:56:01.523Z,101064.50
